createdAt,value
2017-12-03T00:01:21.903Z,99050.02
2017-12-03T00:03:51.003Z,99044.41
2017-12-03T00:06:20.097Z,99030.88
2017-12-03T00:08:49.212Z,99032.09
2017-12-03T00:11:17.586Z,99045.70
2017-12-03T00:13:45.915Z,99040.09
2017-12-03T00:16:14.244Z,99040.52
2017-12-03T00:18:42.580Z,99036.46
2017-12-03T00:21:10.928Z,99044.66
2017-12-03T00:23:39.265Z,99042.73
2017-12-03T00:26:07.597Z,99046.01
2017-12-03T00:28:35.943Z,99048.85
2017-12-03T00:31:04.338Z,99051.62
2017-12-03T00:33:32.712Z,99045.88
2017-12-03T00:36:01.032Z,99045.88
2017-12-03T00:38:30.118Z,99048.16
2017-12-03T00:40:58.462Z,99044.88
2017-12-03T00:43:26.788Z,99050.28
2017-12-03T00:45:55.846Z,99050.06
2017-12-03T00:48:24.219Z,99045.53
2017-12-03T00:50:52.545Z,99044.97
2017-12-03T00:53:21.643Z,99047.30
2017-12-03T00:55:50.738Z,99053.12
2017-12-03T00:58:19.086Z,99054.46
2017-12-03T01:00:47.459Z,99049.75
2017-12-03T01:03:15.845Z,99054.77
2017-12-03T01:05:44.189Z,99053.69
2017-12-03T01:08:12.502Z,99054.38
2017-12-03T01:10:40.834Z,99049.03
2017-12-03T01:13:09.202Z,99049.20
2017-12-03T01:15:37.544Z,99057.58
2017-12-03T01:18:06.671Z,99055.91
2017-12-03T01:20:35.005Z,99058.16
2017-12-03T01:23:03.323Z,99055.27
2017-12-03T01:25:31.638Z,99054.32
2017-12-03T01:27:59.974Z,99054.01
2017-12-03T01:30:28.293Z,99056.59
2017-12-03T01:32:56.630Z,99049.96
2017-12-03T01:35:24.954Z,99049.74
2017-12-03T01:37:53.312Z,99044.17
2017-12-03T01:40:21.610Z,99043.34
2017-12-03T01:42:49.914Z,99047.18
2017-12-03T01:45:18.949Z,99054.18
2017-12-03T01:47:47.266Z,99049.17
2017-12-03T01:50:15.616Z,99052.95
2017-12-03T01:52:43.953Z,99051.48
2017-12-03T01:55:12.292Z,99043.75
2017-12-03T01:57:40.610Z,99047.33
2017-12-03T02:00:08.942Z,99049.71
2017-12-03T02:02:37.274Z,99044.91
2017-12-03T02:05:05.610Z,99044.18
2017-12-03T02:07:34.703Z,99047.67
2017-12-03T02:10:03.030Z,99049.71
2017-12-03T02:12:31.358Z,99050.73
2017-12-03T02:14:59.710Z,99051.75
2017-12-03T02:17:28.038Z,99054.27
2017-12-03T02:19:57.153Z,99046.84
2017-12-03T02:22:25.472Z,99051.22
2017-12-03T02:24:53.834Z,99050.36
2017-12-03T02:27:22.180Z,99047.52
2017-12-03T02:29:50.581Z,99049.45
2017-12-03T02:32:18.907Z,99048.47
2017-12-03T02:34:47.266Z,99046.70
2017-12-03T02:37:15.674Z,99048.19
2017-12-03T02:39:44.767Z,99047.73
2017-12-03T02:42:13.878Z,99052.52
2017-12-03T02:44:42.165Z,99049.58
2017-12-03T02:47:10.498Z,99049.53
2017-12-03T02:49:38.825Z,99043.67
2017-12-03T02:52:07.148Z,99039.95
2017-12-03T02:54:35.504Z,99045.93
2017-12-03T02:57:03.848Z,99044.45
2017-12-03T02:59:32.199Z,99041.19
2017-12-03T03:02:01.309Z,99040.97
2017-12-03T03:04:29.641Z,99047.53
2017-12-03T03:06:57.996Z,99046.94
2017-12-03T03:09:26.315Z,99040.53
2017-12-03T03:11:54.648Z,99039.25
2017-12-03T03:14:22.968Z,99039.47
2017-12-03T03:16:51.298Z,99036.66
2017-12-03T03:19:19.626Z,99032.86
2017-12-03T03:21:48.730Z,99033.86
2017-12-03T03:24:17.846Z,99040.69
2017-12-03T03:26:46.163Z,99034.78
2017-12-03T03:29:14.495Z,99032.59
2017-12-03T03:31:43.579Z,99034.40
2017-12-03T03:34:12.682Z,99027.59
2017-12-03T03:36:41.039Z,99029.53
2017-12-03T03:39:09.367Z,99032.77
2017-12-03T03:41:37.690Z,99028.55
2017-12-03T03:44:06.004Z,99026.59
2017-12-03T03:46:34.311Z,99021.14
2017-12-03T03:49:02.662Z,99024.53
2017-12-03T03:51:30.987Z,99021.60
2017-12-03T03:53:59.310Z,99016.92
2017-12-03T03:56:27.672Z,99014.77
2017-12-03T03:58:55.987Z,99005.18
2017-12-03T04:01:24.337Z,99002.69
2017-12-03T04:03:52.683Z,99003.37
2017-12-03T04:06:21.006Z,98995.08
2017-12-03T04:08:49.334Z,98996.73
2017-12-03T04:11:17.676Z,98992.02
2017-12-03T04:13:46.014Z,99001.50
2017-12-03T04:16:15.088Z,98998.27
2017-12-03T04:18:43.450Z,99000.39
2017-12-03T04:21:11.786Z,99000.14
2017-12-03T04:23:40.129Z,98995.42
2017-12-03T04:26:09.206Z,99001.87
2017-12-03T04:28:37.565Z,99009.09
2017-12-03T04:31:05.915Z,99001.13
2017-12-03T04:33:34.258Z,99007.00
2017-12-03T04:36:08.015Z,99006.86
2017-12-03T04:38:36.360Z,99011.99
2017-12-03T04:41:04.659Z,99011.41
2017-12-03T04:43:32.984Z,99015.72
2017-12-03T04:46:01.318Z,99017.66
2017-12-03T04:48:29.653Z,99021.46
2017-12-03T04:50:58.729Z,99017.45
2017-12-03T04:53:27.074Z,99019.42
2017-12-03T04:55:55.403Z,99023.75
2017-12-03T04:58:24.498Z,99022.48
2017-12-03T05:00:53.606Z,99018.52
2017-12-03T05:03:21.960Z,99022.83
2017-12-03T05:05:50.306Z,99025.62
2017-12-03T05:08:18.654Z,99020.67
2017-12-03T05:10:46.990Z,99017.67
2017-12-03T05:13:16.136Z,99019.75
2017-12-03T05:15:44.476Z,99026.55
2017-12-03T05:18:13.622Z,99028.17
2017-12-03T05:20:41.951Z,99022.73
2017-12-03T05:23:11.083Z,99022.11
2017-12-03T05:25:39.424Z,99023.93
2017-12-03T05:28:08.534Z,99014.78
2017-12-03T05:30:36.865Z,99020.39
2017-12-03T05:33:05.187Z,99024.31
2017-12-03T05:35:33.506Z,99026.44
2017-12-03T05:38:02.090Z,99024.31
2017-12-03T05:40:30.406Z,99020.69
2017-12-03T05:42:59.509Z,99019.48
2017-12-03T05:45:28.590Z,99023.02
2017-12-03T05:47:57.724Z,99013.13
2017-12-03T05:50:26.051Z,99001.41
2017-12-03T05:52:54.352Z,99007.76
2017-12-03T05:55:23.469Z,99006.56
2017-12-03T05:57:51.790Z,99010.80
2017-12-03T06:00:20.127Z,99018.87
2017-12-03T06:02:48.446Z,99016.42
2017-12-03T06:05:16.777Z,99021.16
2017-12-03T06:07:45.122Z,99021.67
2017-12-03T06:10:14.234Z,99034.11
2017-12-03T06:12:42.551Z,99042.36
2017-12-03T06:15:10.891Z,99031.63
2017-12-03T06:17:39.185Z,99020.32
2017-12-03T06:20:07.492Z,99005.59
2017-12-03T06:22:36.562Z,99002.44
2017-12-03T06:25:04.905Z,98997.30
2017-12-03T06:27:33.968Z,98999.12
2017-12-03T06:30:02.277Z,98997.17
2017-12-03T06:32:31.399Z,99001.75
2017-12-03T06:34:59.694Z,99004.70
2017-12-03T06:37:28.013Z,99003.63
2017-12-03T06:39:56.305Z,99008.14
2017-12-03T06:42:24.593Z,99016.73
2017-12-03T06:44:52.885Z,99030.75
2017-12-03T06:47:21.216Z,99039.49
2017-12-03T06:49:50.328Z,99029.69
2017-12-03T06:52:19.424Z,99012.42
2017-12-03T06:54:48.519Z,99012.14
2017-12-03T06:57:17.627Z,99019.09
2017-12-03T06:59:45.962Z,99018.20
2017-12-03T07:02:14.304Z,99022.84
2017-12-03T07:04:42.623Z,99019.56
2017-12-03T07:07:10.971Z,99024.08
2017-12-03T07:09:39.282Z,99018.73
2017-12-03T07:12:07.651Z,99018.22
2017-12-03T07:14:35.986Z,99021.64
2017-12-03T07:17:04.357Z,99017.84
2017-12-03T07:19:32.707Z,99027.44
2017-12-03T07:22:01.803Z,99025.71
2017-12-03T07:24:30.185Z,99026.53
2017-12-03T07:26:59.298Z,99025.70
2017-12-03T07:29:27.589Z,99034.69
2017-12-03T07:31:55.842Z,99027.66
2017-12-03T07:34:24.397Z,99045.50
2017-12-03T07:36:52.751Z,99052.66
2017-12-03T07:39:21.086Z,99047.20
2017-12-03T07:41:49.427Z,99053.17
2017-12-03T07:44:18.542Z,99048.95
2017-12-03T07:46:46.900Z,99055.48
2017-12-03T07:49:15.231Z,99049.13
2017-12-03T07:51:43.560Z,99050.57
2017-12-03T07:54:12.666Z,99061.83
2017-12-03T07:56:41.772Z,99066.52
2017-12-03T07:59:10.111Z,99064.27
2017-12-03T08:01:38.438Z,99064.27
2017-12-03T08:04:06.774Z,99064.44
2017-12-03T08:06:35.115Z,99066.60
2017-12-03T08:09:03.461Z,99068.19
2017-12-03T08:11:31.810Z,99073.22
2017-12-03T08:14:00.907Z,99070.06
2017-12-03T08:16:29.248Z,99067.36
2017-12-03T08:18:58.350Z,99069.54
2017-12-03T08:21:26.696Z,99066.64
2017-12-03T08:23:55.075Z,99063.00
2017-12-03T08:26:23.428Z,99061.06
2017-12-03T08:28:52.531Z,99057.26
2017-12-03T08:31:20.868Z,99060.47
2017-12-03T08:33:49.193Z,99060.48
2017-12-03T08:36:17.538Z,99051.78
2017-12-03T08:38:45.878Z,99052.50
2017-12-03T08:41:14.297Z,99048.67
2017-12-03T08:43:43.393Z,99040.95
2017-12-03T08:46:12.529Z,99046.63
2017-12-03T08:48:40.876Z,99043.06
2017-12-03T08:51:09.969Z,99032.81
2017-12-03T08:53:39.087Z,99043.64
2017-12-03T08:56:07.464Z,99053.00
2017-12-03T08:58:35.795Z,99056.69
2017-12-03T09:01:04.138Z,99054.53
2017-12-03T09:03:32.523Z,99053.55
2017-12-03T09:06:00.869Z,99056.55
2017-12-03T09:08:29.242Z,99055.61
2017-12-03T09:10:57.592Z,99061.95
2017-12-03T09:13:25.937Z,99053.34
2017-12-03T09:15:54.271Z,99053.89
2017-12-03T09:18:23.374Z,99063.59
2017-12-03T09:20:51.720Z,99058.41
2017-12-03T09:23:20.088Z,99059.27
2017-12-03T09:25:48.436Z,99063.86
2017-12-03T09:28:16.752Z,99060.30
2017-12-03T09:30:45.892Z,99062.69
2017-12-03T09:33:14.221Z,99069.94
2017-12-03T09:35:42.560Z,99064.98
2017-12-03T09:38:10.890Z,99053.58
2017-12-03T09:40:39.991Z,99060.38
2017-12-03T09:43:09.094Z,99056.50
2017-12-03T09:45:37.419Z,99056.58
2017-12-03T09:48:05.773Z,99055.31
2017-12-03T09:50:34.099Z,99062.27
2017-12-03T09:53:02.436Z,99063.80
2017-12-03T09:55:30.735Z,99050.80
2017-12-03T09:57:59.025Z,99044.89
2017-12-03T10:00:27.333Z,99042.75
2017-12-03T10:02:56.409Z,99044.78
2017-12-03T10:05:25.522Z,99043.26
2017-12-03T10:07:54.621Z,99045.95
2017-12-03T10:10:23.708Z,99041.44
2017-12-03T10:12:52.003Z,99045.01
2017-12-03T10:15:21.073Z,99036.09
2017-12-03T10:17:49.408Z,99041.45
2017-12-03T10:20:17.711Z,99035.97
2017-12-03T10:22:46.014Z,99029.11
2017-12-03T10:25:14.318Z,99026.98
2017-12-03T10:27:43.427Z,99021.48
2017-12-03T10:30:11.737Z,99017.77
2017-12-03T10:32:40.055Z,99010.97
2017-12-03T10:35:08.376Z,99012.69
2017-12-03T10:37:36.653Z,99006.53
2017-12-03T10:40:04.950Z,98991.05
2017-12-03T10:42:33.273Z,98999.61
2017-12-03T10:45:02.347Z,98987.12
2017-12-03T10:47:30.625Z,98988.28
2017-12-03T10:49:58.924Z,98988.46
2017-12-03T10:52:27.227Z,98983.97
2017-12-03T10:54:55.521Z,98988.95
2017-12-03T10:57:23.830Z,98982.27
2017-12-03T10:59:52.170Z,98985.58
2017-12-03T11:02:20.504Z,98989.95
2017-12-03T11:04:49.562Z,98991.19
2017-12-03T11:07:17.884Z,98980.20
2017-12-03T11:09:46.184Z,98978.77
2017-12-03T11:12:14.481Z,98978.20
2017-12-03T11:14:42.785Z,98970.83
2017-12-03T11:17:11.075Z,98977.52
2017-12-03T11:19:39.396Z,98979.47
2017-12-03T11:22:07.697Z,98979.98
2017-12-03T11:24:35.997Z,98976.22
2017-12-03T11:27:04.297Z,98973.55
2017-12-03T11:29:33.367Z,98964.61
2017-12-03T11:32:01.671Z,98959.56
2017-12-03T11:34:30.002Z,98960.03
2017-12-03T11:36:58.324Z,98948.52
2017-12-03T11:39:27.405Z,98951.91
2017-12-03T11:41:55.702Z,98940.05
2017-12-03T11:44:24.006Z,98945.97
2017-12-03T11:46:52.309Z,98941.69
2017-12-03T11:49:20.605Z,98941.00
2017-12-03T11:51:48.886Z,98941.63
2017-12-03T11:54:17.977Z,98939.98
2017-12-03T11:56:46.295Z,98937.50
2017-12-03T11:59:14.622Z,98931.53
2017-12-03T12:01:42.921Z,98933.02
2017-12-03T12:04:11.999Z,98928.74
2017-12-03T12:06:40.321Z,98926.75
2017-12-03T12:09:08.629Z,98918.58
2017-12-03T12:11:36.942Z,98918.02
2017-12-03T12:14:06.017Z,98914.38
2017-12-03T12:16:34.311Z,98909.21
2017-12-03T12:19:03.380Z,98911.58
2017-12-03T12:21:31.666Z,98911.83
2017-12-03T12:24:00.004Z,98903.63
2017-12-03T12:26:28.321Z,98914.33
2017-12-03T12:28:56.629Z,98909.32
2017-12-03T12:31:25.714Z,98909.57
2017-12-03T12:33:54.765Z,98906.92
2017-12-03T12:36:23.081Z,98898.95
2017-12-03T12:38:52.137Z,98897.36
2017-12-03T12:41:20.469Z,98900.56
2017-12-03T12:43:49.524Z,98907.59
2017-12-03T12:46:17.825Z,98899.19
2017-12-03T12:48:46.898Z,98898.61
2017-12-03T12:51:15.212Z,98897.64
2017-12-03T12:53:43.512Z,98894.27
2017-12-03T12:56:11.838Z,98887.33
2017-12-03T12:58:40.145Z,98892.31
2017-12-03T13:01:08.458Z,98886.19
2017-12-03T13:03:36.764Z,98894.52
2017-12-03T13:06:05.078Z,98895.17
2017-12-03T13:08:33.377Z,98896.56
2017-12-03T13:11:01.669Z,98887.70
2017-12-03T13:13:29.981Z,98884.17
2017-12-03T13:15:59.049Z,98878.72
2017-12-03T13:18:27.349Z,98884.19
2017-12-03T13:20:56.432Z,98887.25
2017-12-03T13:23:24.730Z,98873.28
2017-12-03T13:25:53.801Z,98879.55
2017-12-03T13:28:22.114Z,98878.73
2017-12-03T13:30:50.421Z,98872.78
2017-12-03T13:33:18.725Z,98874.20
2017-12-03T13:35:47.012Z,98871.42
2017-12-03T13:38:15.313Z,98872.16
2017-12-03T13:40:44.406Z,98873.02
2017-12-03T13:43:13.459Z,98870.08
2017-12-03T13:45:41.748Z,98872.61
2017-12-03T13:48:10.058Z,98868.88
2017-12-03T13:50:38.353Z,98867.64
2017-12-03T13:53:06.665Z,98869.44
2017-12-03T13:55:34.973Z,98872.38
2017-12-03T13:58:04.101Z,98867.04
2017-12-03T14:00:32.375Z,98867.41
2017-12-03T14:03:00.668Z,98865.63
2017-12-03T14:05:28.991Z,98859.87
2017-12-03T14:07:57.281Z,98868.42
2017-12-03T14:10:26.345Z,98860.09
2017-12-03T14:12:54.650Z,98854.89
2017-12-03T14:15:23.705Z,98856.77
2017-12-03T14:17:52.012Z,98859.73
2017-12-03T14:20:21.084Z,98858.62
2017-12-03T14:22:49.371Z,98857.84
2017-12-03T14:25:17.668Z,98856.73
2017-12-03T14:27:46.735Z,98849.25
2017-12-03T14:30:15.058Z,98853.06
2017-12-03T14:32:43.353Z,98848.14
2017-12-03T14:35:11.661Z,98851.59
2017-12-03T14:37:39.991Z,98847.89
2017-12-03T14:40:08.305Z,98848.17
2017-12-03T14:42:36.593Z,98849.00
2017-12-03T14:45:04.912Z,98844.11
2017-12-03T14:47:33.973Z,98843.11
2017-12-03T14:50:02.303Z,98835.12
2017-12-03T14:52:30.584Z,98830.91
2017-12-03T14:54:58.908Z,98830.11
2017-12-03T14:57:27.185Z,98832.43
2017-12-03T14:59:55.473Z,98837.51
2017-12-03T15:02:24.529Z,98845.09
2017-12-03T15:04:52.812Z,98844.84
2017-12-03T15:07:21.133Z,98844.49
2017-12-03T15:09:51.181Z,98838.71
2017-12-03T15:12:19.473Z,98830.05
2017-12-03T15:14:47.768Z,98825.06
2017-12-03T15:17:16.072Z,98835.05
2017-12-03T15:19:45.116Z,98837.39
2017-12-03T15:22:13.419Z,98828.05
2017-12-03T15:24:41.710Z,98827.02
2017-12-03T15:27:10.788Z,98835.56
2017-12-03T15:29:39.085Z,98829.39
2017-12-03T15:32:08.184Z,98832.50
2017-12-03T15:34:37.267Z,98833.32
2017-12-03T15:37:06.336Z,98821.96
2017-12-03T15:39:34.633Z,98832.45
2017-12-03T15:42:02.921Z,98828.13
2017-12-03T15:44:31.990Z,98832.84
2017-12-03T15:47:00.289Z,98817.73
2017-12-03T15:49:29.390Z,98823.70
2017-12-03T15:51:58.454Z,98820.08
2017-12-03T15:54:26.785Z,98819.08
2017-12-03T15:56:55.085Z,98824.69
2017-12-03T15:59:23.384Z,98823.64
2017-12-03T16:01:51.676Z,98824.30
2017-12-03T16:04:19.969Z,98809.58
2017-12-03T16:06:49.022Z,98826.11
2017-12-03T16:09:17.324Z,98824.03
2017-12-03T16:11:45.625Z,98821.09
2017-12-03T16:14:14.700Z,98813.30
2017-12-03T16:16:42.991Z,98811.13
2017-12-03T16:19:12.050Z,98818.69
2017-12-03T16:21:40.331Z,98809.30
2017-12-03T16:24:08.622Z,98817.44
2017-12-03T16:26:37.693Z,98829.74
2017-12-03T16:29:05.986Z,98820.98
2017-12-03T16:31:34.249Z,98814.25
2017-12-03T16:34:02.542Z,98819.00
2017-12-03T16:36:30.794Z,98819.17
2017-12-03T16:38:59.076Z,98816.70
2017-12-03T16:41:27.346Z,98824.74
2017-12-03T16:43:55.633Z,98826.63
2017-12-03T16:46:23.884Z,98824.92
2017-12-03T16:48:52.322Z,98817.50
2017-12-03T16:51:21.410Z,98816.68
2017-12-03T16:53:50.492Z,98812.06
2017-12-03T16:56:19.590Z,98821.52
2017-12-03T16:58:48.681Z,98829.09
2017-12-03T17:01:17.009Z,98820.08
2017-12-03T17:03:45.346Z,98817.89
2017-12-03T17:06:14.401Z,98821.71
2017-12-03T17:08:42.712Z,98827.75
2017-12-03T17:11:11.777Z,98821.23
2017-12-03T17:13:40.038Z,98825.63
2017-12-03T17:16:08.306Z,98822.27
2017-12-03T17:18:36.557Z,98819.16
2017-12-03T17:21:04.909Z,98829.39
2017-12-03T17:23:33.182Z,98824.85
2017-12-03T17:26:02.641Z,98818.61
2017-12-03T17:28:30.922Z,98823.31
2017-12-03T17:30:59.184Z,98820.31
2017-12-03T17:33:27.454Z,98820.20
2017-12-03T17:35:55.738Z,98825.32
2017-12-03T17:38:23.990Z,98826.87
2017-12-03T17:40:52.262Z,98819.84
2017-12-03T17:43:20.529Z,98829.00
2017-12-03T17:45:49.574Z,98828.54
2017-12-03T17:48:17.829Z,98825.80
2017-12-03T17:50:46.101Z,98829.67
2017-12-03T17:53:14.366Z,98833.13
2017-12-03T17:55:42.636Z,98829.63
2017-12-03T17:58:10.913Z,98829.96
2017-12-03T18:00:39.161Z,98834.00
2017-12-03T18:03:07.440Z,98836.00
2017-12-03T18:05:35.694Z,98830.98
2017-12-03T18:08:03.967Z,98834.50
2017-12-03T18:10:32.214Z,98832.02
2017-12-03T18:13:00.484Z,98839.18
2017-12-03T18:15:28.743Z,98832.71
2017-12-03T18:17:57.007Z,98831.38
2017-12-03T18:20:26.026Z,98829.98
2017-12-03T18:22:54.298Z,98834.13
2017-12-03T18:25:22.560Z,98829.82
2017-12-03T18:27:50.937Z,98834.42
2017-12-03T18:30:19.195Z,98838.56
2017-12-03T18:32:48.229Z,98840.29
2017-12-03T18:35:16.482Z,98845.78
2017-12-03T18:37:44.753Z,98847.88
2017-12-03T18:40:13.039Z,98851.20
2017-12-03T18:42:41.302Z,98841.27
2017-12-03T18:45:10.366Z,98846.50
2017-12-03T18:47:38.616Z,98856.84
2017-12-03T18:50:06.882Z,98866.16
2017-12-03T18:52:35.182Z,98861.10
2017-12-03T18:55:03.444Z,98871.78
2017-12-03T18:57:31.699Z,98868.59
2017-12-03T18:59:59.992Z,98871.58
2017-12-03T19:02:28.234Z,98870.06
2017-12-03T19:04:56.501Z,98872.41
2017-12-03T19:07:24.769Z,98868.84
2017-12-03T19:09:53.799Z,98878.04
2017-12-03T19:12:22.053Z,98871.95
2017-12-03T19:14:50.330Z,98874.46
2017-12-03T19:17:18.587Z,98875.13
2017-12-03T19:19:47.618Z,98869.91
2017-12-03T19:22:15.877Z,98879.11
2017-12-03T19:24:44.151Z,98877.12
2017-12-03T19:27:13.199Z,98879.27
2017-12-03T19:29:41.461Z,98874.55
2017-12-03T19:32:09.717Z,98878.38
2017-12-03T19:34:37.994Z,98870.53
2017-12-03T19:37:06.257Z,98879.73
2017-12-03T19:39:34.533Z,98872.34
2017-12-03T19:42:02.793Z,98873.97
2017-12-03T19:44:33.885Z,98865.25
2017-12-03T19:47:02.905Z,98866.33
2017-12-03T19:49:31.198Z,98875.95
2017-12-03T19:52:00.226Z,98872.48
2017-12-03T19:54:28.514Z,98869.81
2017-12-03T19:56:56.763Z,98871.63
2017-12-03T19:59:25.031Z,98868.42
2017-12-03T20:01:53.299Z,98871.66
2017-12-03T20:04:22.364Z,98867.64
2017-12-03T20:06:50.672Z,98867.38
2017-12-03T20:09:19.743Z,98862.69
2017-12-03T20:11:47.997Z,98864.72
2017-12-03T20:14:16.319Z,98875.37
2017-12-03T20:16:45.348Z,98874.70
2017-12-03T20:19:13.602Z,98881.37
2017-12-03T20:21:41.870Z,98878.88
2017-12-03T20:24:10.130Z,98881.34
2017-12-03T20:26:39.291Z,98882.36
2017-12-03T20:29:07.540Z,98883.53
2017-12-03T20:31:35.853Z,98881.03
2017-12-03T20:34:04.118Z,98882.13
2017-12-03T20:36:32.423Z,98882.61
2017-12-03T20:39:00.695Z,98884.69
2017-12-03T20:41:28.955Z,98884.38
2017-12-03T20:43:57.217Z,98885.50
2017-12-03T20:46:25.485Z,98883.28
2017-12-03T20:48:53.751Z,98892.88
2017-12-03T20:51:22.014Z,98896.20
2017-12-03T20:53:50.276Z,98892.83
2017-12-03T20:56:18.534Z,98882.31
2017-12-03T20:58:47.626Z,98890.38
2017-12-03T21:01:16.700Z,98900.25
2017-12-03T21:03:44.959Z,98888.97
2017-12-03T21:06:13.235Z,98892.54
2017-12-03T21:08:41.499Z,98892.70
2017-12-03T21:11:10.587Z,98894.90
2017-12-03T21:13:38.842Z,98895.13
2017-12-03T21:16:07.240Z,98894.02
2017-12-03T21:18:35.610Z,98892.58
2017-12-03T21:21:03.877Z,98899.28
2017-12-03T21:23:32.134Z,98900.14
2017-12-03T21:26:01.170Z,98894.64
2017-12-03T21:28:29.457Z,98887.59
2017-12-03T21:30:57.730Z,98893.38
2017-12-03T21:33:26.754Z,98891.50
2017-12-03T21:35:55.049Z,98885.47
2017-12-03T21:38:23.326Z,98890.17
2017-12-03T21:40:52.387Z,98889.23
2017-12-03T21:43:20.642Z,98889.39
2017-12-03T21:45:48.922Z,98896.13
2017-12-03T21:48:17.191Z,98886.98
2017-12-03T21:50:45.460Z,98885.00
2017-12-03T21:53:13.725Z,98895.70
2017-12-03T21:55:41.987Z,98905.60
2017-12-03T21:58:11.022Z,98893.47
2017-12-03T22:00:39.290Z,98897.44
2017-12-03T22:03:07.563Z,98904.80
2017-12-03T22:05:35.847Z,98903.97
2017-12-03T22:08:06.434Z,98902.68
2017-12-03T22:10:42.734Z,98900.57
2017-12-03T22:13:11.057Z,98888.11
2017-12-03T22:15:39.361Z,98891.55
2017-12-03T22:18:07.674Z,98900.80
2017-12-03T22:20:35.985Z,98909.95
2017-12-03T22:23:04.304Z,98899.98
2017-12-03T22:25:32.617Z,98895.44
2017-12-03T22:28:01.295Z,98898.89
2017-12-03T22:30:29.705Z,98908.81
2017-12-03T22:32:58.014Z,98910.68
2017-12-03T22:35:26.356Z,98926.09
2017-12-03T22:37:54.730Z,98928.09
2017-12-03T22:40:23.040Z,98920.65
2017-12-03T22:42:51.360Z,98920.41
2017-12-03T22:45:19.675Z,98916.56
2017-12-03T22:47:48.859Z,98922.48
2017-12-03T22:50:17.181Z,98914.07
2017-12-03T22:52:45.485Z,98929.28
2017-12-03T22:55:13.752Z,98936.33
2017-12-03T22:57:42.055Z,98947.27
2017-12-03T23:00:10.370Z,98928.84
2017-12-03T23:02:38.658Z,98932.72
2017-12-03T23:05:06.913Z,98953.19
2017-12-03T23:07:35.946Z,98944.77
2017-12-03T23:10:04.216Z,98937.63
2017-12-03T23:12:32.482Z,98943.52
2017-12-03T23:15:00.735Z,98942.19
2017-12-03T23:17:29.767Z,98937.32
2017-12-03T23:19:58.034Z,98947.59
2017-12-03T23:22:26.295Z,98951.03
2017-12-03T23:24:54.567Z,98950.81
2017-12-03T23:27:22.823Z,98947.29
2017-12-03T23:29:51.105Z,98943.95
2017-12-03T23:32:20.118Z,98941.17
2017-12-03T23:34:48.391Z,98935.83
2017-12-03T23:37:16.655Z,98948.61
2017-12-03T23:39:44.925Z,98945.59
2017-12-03T23:42:13.186Z,98946.77
2017-12-03T23:44:42.240Z,98954.06
2017-12-03T23:47:10.498Z,98955.48
2017-12-03T23:49:38.774Z,98961.24
2017-12-03T23:52:07.042Z,98970.30
2017-12-03T23:54:35.307Z,98971.56
2017-12-03T23:57:03.583Z,98967.80
2017-12-03T23:59:31.845Z,98957.95
